EndleSS C's — WDJ5992 — position and weather

sailwx.info

Track history (hours):
 
Tides and Currents Weather Stations Pressure Air Temp Water Temp Dewpoint Dewpoint Depression Visibility Wind Speed Wind Dir Waves Ship Positions

EndleSS C's

Owner: Cone, Hunter, Tampa, FL. More information available from US FCC via Universal Licensing System.

Last reported at 2017-Nov-19 06:22 UTC. Time now 2017-Nov-19 06:44 UTC.
Position N 27°53' W 082°32'.

Length 18 m.

Type: Pleasure craft. MMSI: 367793280.

Date/timePositionNaut miles runAvg speedWind from/ knotsBaromVisibWave heightAir tempDewpointWater temp
2017-Nov-19 06:22N 27°53' W 082°32'0 0.0
2017-Nov-19 05:58N 27°53' W 082°32'0 0.0
2017-Nov-19 05:28N 27°53' W 082°32'0 0.0
2017-Nov-19 04:58N 27°53' W 082°32'0 0.0
2017-Nov-19 04:25N 27°53' W 082°32'0 0.0
2017-Nov-19 03:59N 27°53' W 082°32'0 0.0
2017-Nov-19 03:26N 27°53' W 082°32'0 0.0
2017-Nov-19 02:59N 27°53' W 082°32'0 0.0
2017-Nov-19 02:29N 27°53' W 082°32'0 0.0
2017-Nov-19 01:56N 27°53' W 082°32'0 0.0
2017-Nov-19 01:29N 27°53' W 082°32'0 0.0
2017-Nov-19 00:59N 27°53' W 082°32'0 0.0
2017-Nov-19 00:30N 27°53' W 082°32'0 0.0
2017-Nov-19 00:00N 27°53' W 082°32'0 0.0
2017-Nov-18 23:30N 27°53' W 082°32'0 0.0
2017-Nov-18 22:57N 27°53' W 082°32'0 0.0
2017-Nov-18 22:27N 27°53' W 082°32'  
2017-Nov-10 20:37N 26°58' W 080°05'1 9.5
2017-Nov-10 20:30N 26°57' W 080°05'5112.5
2017-Nov-10 16:24N 26°06' W 080°05'2 0.2
2017-Nov-10 01:04N 26°06' W 080°07'0 0.0
2017-Nov-10 00:46N 26°06' W 080°07'0 0.0
2017-Nov-09 20:32N 26°06' W 080°07'0 5.1
2017-Nov-09 20:29N 26°06' W 080°07'2 3.8
2017-Nov-09 19:52N 26°06' W 080°10'1 2.7
2017-Nov-09 19:26N 26°05' W 080°11'0 0.0
2017-Nov-09 18:53N 26°05' W 080°11'0 0.0
2017-Nov-09 18:26N 26°05' W 080°11'0 0.0
2017-Nov-09 17:56N 26°05' W 080°11'0 0.0
2017-Nov-09 17:23N 26°05' W 080°11'0 0.0
2017-Nov-09 16:59N 26°05' W 080°11'0 0.0
2017-Nov-09 16:28N 26°05' W 080°11'0 0.0
2017-Nov-09 15:58N 26°05' W 080°11'0 0.0
2017-Nov-09 15:26N 26°05' W 080°11'0 0.0
2017-Nov-09 14:58N 26°05' W 080°11'0 0.0
2017-Nov-09 14:29N 26°05' W 080°11'0 0.0
2017-Nov-09 13:59N 26°05' W 080°11'0 0.0
2017-Nov-09 13:17N 26°05' W 080°11'0 0.0
2017-Nov-09 12:58N 26°05' W 080°11'0 0.0
2017-Nov-09 12:16N 26°05' W 080°11'0 0.0
2017-Nov-09 11:58N 26°05' W 080°11'0 0.0
2017-Nov-09 11:28N 26°05' W 080°11'0 0.0
2017-Nov-09 10:59N 26°05' W 080°11'0 0.0
2017-Nov-09 10:28N 26°05' W 080°11'0 0.0
2017-Nov-09 09:58N 26°05' W 080°11'0 0.0
2017-Nov-09 09:20N 26°05' W 080°11'0 0.0
2017-Nov-09 08:46N 26°05' W 080°11'0 0.0
2017-Nov-09 08:15N 26°05' W 080°11'0 0.0
2017-Nov-09 08:00N 26°05' W 080°11'0 0.0
2017-Nov-09 07:30N 26°05' W 080°11'0 0.0
2017-Nov-09 07:00N 26°05' W 080°11'0 0.0
2017-Nov-09 06:30N 26°05' W 080°11'  
Track history (hours):
 
Tides and Currents Weather Stations Pressure Air Temp Water Temp Dewpoint Dewpoint Depression Visibility Wind Speed Wind Dir Waves Ship Positions

EndleSS C's

Owner: Cone, Hunter, Tampa, FL. More information available from US FCC via Universal Licensing System.

Last reported at 2017-Nov-19 06:22 UTC. Time now 2017-Nov-19 06:44 UTC.
Position N 27°53' W 082°32'.

Length 18 m.

Type: Pleasure craft. MMSI: 367793280.

Date/timePositionNaut miles runAvg speedWind from/ knotsBaromVisibWave heightAir tempDewpointWater temp
2017-Nov-19 06:22N 27°53' W 082°32'0 0.0
2017-Nov-19 05:58N 27°53' W 082°32'0 0.0
2017-Nov-19 05:28N 27°53' W 082°32'0 0.0
2017-Nov-19 04:58N 27°53' W 082°32'0 0.0
2017-Nov-19 04:25N 27°53' W 082°32'0 0.0
2017-Nov-19 03:59N 27°53' W 082°32'0 0.0
2017-Nov-19 03:26N 27°53' W 082°32'0 0.0
2017-Nov-19 02:59N 27°53' W 082°32'0 0.0
2017-Nov-19 02:29N 27°53' W 082°32'0 0.0
2017-Nov-19 01:56N 27°53' W 082°32'0 0.0
2017-Nov-19 01:29N 27°53' W 082°32'0 0.0
2017-Nov-19 00:59N 27°53' W 082°32'0 0.0
2017-Nov-19 00:30N 27°53' W 082°32'0 0.0
2017-Nov-19 00:00N 27°53' W 082°32'0 0.0
2017-Nov-18 23:30N 27°53' W 082°32'0 0.0
2017-Nov-18 22:57N 27°53' W 082°32'0 0.0
2017-Nov-18 22:27N 27°53' W 082°32'  
2017-Nov-10 20:37N 26°58' W 080°05'1 9.5
2017-Nov-10 20:30N 26°57' W 080°05'5112.5
2017-Nov-10 16:24N 26°06' W 080°05'2 0.2
2017-Nov-10 01:04N 26°06' W 080°07'0 0.0
2017-Nov-10 00:46N 26°06' W 080°07'0 0.0
2017-Nov-09 20:32N 26°06' W 080°07'0 5.1
2017-Nov-09 20:29N 26°06' W 080°07'2 3.8
2017-Nov-09 19:52N 26°06' W 080°10'1 2.7
2017-Nov-09 19:26N 26°05' W 080°11'0 0.0
2017-Nov-09 18:53N 26°05' W 080°11'0 0.0
2017-Nov-09 18:26N 26°05' W 080°11'0 0.0
2017-Nov-09 17:56N 26°05' W 080°11'0 0.0
2017-Nov-09 17:23N 26°05' W 080°11'0 0.0
2017-Nov-09 16:59N 26°05' W 080°11'0 0.0
2017-Nov-09 16:28N 26°05' W 080°11'0 0.0
2017-Nov-09 15:58N 26°05' W 080°11'0 0.0
2017-Nov-09 15:26N 26°05' W 080°11'0 0.0
2017-Nov-09 14:58N 26°05' W 080°11'0 0.0
2017-Nov-09 14:29N 26°05' W 080°11'0 0.0
2017-Nov-09 13:59N 26°05' W 080°11'0 0.0
2017-Nov-09 13:17N 26°05' W 080°11'0 0.0
2017-Nov-09 12:58N 26°05' W 080°11'0 0.0
2017-Nov-09 12:16N 26°05' W 080°11'0 0.0
2017-Nov-09 11:58N 26°05' W 080°11'0 0.0
2017-Nov-09 11:28N 26°05' W 080°11'0 0.0
2017-Nov-09 10:59N 26°05' W 080°11'0 0.0
2017-Nov-09 10:28N 26°05' W 080°11'0 0.0
2017-Nov-09 09:58N 26°05' W 080°11'0 0.0
2017-Nov-09 09:20N 26°05' W 080°11'0 0.0
2017-Nov-09 08:46N 26°05' W 080°11'0 0.0
2017-Nov-09 08:15N 26°05' W 080°11'0 0.0
2017-Nov-09 08:00N 26°05' W 080°11'0 0.0
2017-Nov-09 07:30N 26°05' W 080°11'0 0.0
2017-Nov-09 07:00N 26°05' W 080°11'0 0.0
2017-Nov-09 06:30N 26°05' W 080°11'  

Dump ship's entire track history